createdAt,value
2023-02-07T00:00:17.619Z,4.60
2023-02-07T00:05:19.726Z,4.53
2023-02-07T00:10:22.374Z,4.74
2023-02-07T00:15:25.618Z,4.67
2023-02-07T00:20:27.771Z,4.61
2023-02-07T00:25:29.873Z,4.60
2023-02-07T00:30:32.157Z,4.46
2023-02-07T00:35:34.332Z,4.31
2023-02-07T00:40:36.468Z,4.45
2023-02-07T00:45:38.893Z,4.65
2023-02-07T00:50:42.151Z,4.43
2023-02-07T00:55:44.269Z,4.37
2023-02-07T01:00:47.019Z,4.45
2023-02-07T01:05:49.175Z,4.27
2023-02-07T01:10:51.405Z,4.34
2023-02-07T01:15:54.911Z,4.50
2023-02-07T01:20:57.516Z,4.87
2023-02-07T01:25:59.674Z,4.81
2023-02-07T01:31:06.588Z,4.61
2023-02-07T01:36:15.214Z,4.60
2023-02-07T01:41:17.368Z,4.62
2023-02-07T01:46:19.466Z,4.68
2023-02-07T01:51:22.872Z,4.85
2023-02-07T01:56:31.913Z,4.67
2023-02-07T02:01:35.947Z,4.43
2023-02-07T02:06:40.595Z,4.62
2023-02-07T02:12:12.333Z,4.58
2023-02-07T02:17:43.168Z,4.71
2023-02-07T02:22:56.331Z,4.78
2023-02-07T02:28:01.298Z,4.75
2023-02-07T02:33:28.800Z,4.56
2023-02-07T02:38:51.476Z,4.64
2023-02-07T02:44:01.364Z,4.54
2023-02-07T02:49:06.782Z,4.75
2023-02-07T02:54:29.967Z,4.88
2023-02-07T03:00:01.426Z,4.92
2023-02-07T03:05:38.683Z,4.68
2023-02-07T03:11:04.227Z,4.65
2023-02-07T03:16:23.555Z,4.61
2023-02-07T03:21:31.972Z,4.58
2023-02-07T03:26:36.235Z,4.59
2023-02-07T03:31:42.000Z,4.71
2023-02-07T03:37:11.628Z,4.65
2023-02-07T03:42:30.165Z,4.31
2023-02-07T03:47:32.360Z,4.24
2023-02-07T03:52:34.435Z,4.41
2023-02-07T03:57:36.596Z,4.47
2023-02-07T04:02:38.749Z,4.12
2023-02-07T04:07:41.029Z,4.02
2023-02-07T04:12:43.231Z,4.05
2023-02-07T04:17:45.436Z,3.93
2023-02-07T04:22:47.578Z,3.85
2023-02-07T04:27:49.743Z,3.98
2023-02-07T04:32:52.040Z,4.07
2023-02-07T04:37:54.130Z,4.14
2023-02-07T04:42:56.270Z,4.03
2023-02-07T04:47:58.345Z,3.81
2023-02-07T04:53:00.464Z,3.73
2023-02-07T04:58:02.581Z,3.95
2023-02-07T05:03:04.758Z,4.29
2023-02-07T05:08:07.450Z,4.38
2023-02-07T05:13:09.781Z,4.35
2023-02-07T05:18:11.909Z,4.14
2023-02-07T05:23:14.518Z,4.16
2023-02-07T05:28:16.962Z,4.00
2023-02-07T05:33:19.114Z,4.08
2023-02-07T05:38:21.557Z,4.48
2023-02-07T05:43:23.779Z,4.25
2023-02-07T05:48:25.956Z,3.97
2023-02-07T05:53:28.050Z,4.14
2023-02-07T05:58:30.252Z,3.68
2023-02-07T06:03:32.536Z,3.79
2023-02-07T06:08:34.853Z,4.10
2023-02-07T06:13:37.313Z,4.07
2023-02-07T06:18:39.417Z,4.12
2023-02-07T06:23:41.603Z,4.04
2023-02-07T06:28:44.015Z,4.17
2023-02-07T06:33:46.253Z,4.05
2023-02-07T06:38:49.449Z,3.85
2023-02-07T06:43:52.131Z,4.49
2023-02-07T06:48:54.429Z,4.50
2023-02-07T06:53:56.588Z,4.49
2023-02-07T06:58:58.854Z,4.41
2023-02-07T07:04:01.095Z,4.63
2023-02-07T07:09:04.717Z,4.32
2023-02-07T07:14:06.882Z,4.16
2023-02-07T07:19:09.237Z,4.47
2023-02-07T07:24:11.596Z,4.75
2023-02-07T07:29:13.980Z,4.78
2023-02-07T07:34:16.379Z,4.83
2023-02-07T07:39:18.838Z,4.81
2023-02-07T07:44:20.989Z,4.75
2023-02-07T07:49:23.143Z,4.98
2023-02-07T07:54:25.314Z,5.20
2023-02-07T07:59:27.574Z,5.25
2023-02-07T08:04:29.692Z,5.36
2023-02-07T08:09:31.899Z,5.40
2023-02-07T08:14:34.051Z,5.49
2023-02-07T08:19:38.684Z,5.87
2023-02-07T08:24:42.405Z,6.17
2023-02-07T08:29:46.299Z,6.25
2023-02-07T08:34:48.457Z,6.17
2023-02-07T08:39:53.157Z,5.79
2023-02-07T08:44:55.326Z,6.11
2023-02-07T08:49:57.654Z,6.00
2023-02-07T08:54:59.762Z,6.55
2023-02-07T09:00:02.295Z,6.58
2023-02-07T09:05:04.529Z,6.49
2023-02-07T09:10:09.129Z,6.58
2023-02-07T09:15:11.273Z,6.34
2023-02-07T09:20:13.561Z,6.69
2023-02-07T09:25:15.861Z,6.96
2023-02-07T09:30:18.674Z,7.15
2023-02-07T09:35:20.847Z,7.41
2023-02-07T09:40:23.606Z,7.41
2023-02-07T09:45:29.507Z,7.25
2023-02-07T09:50:37.984Z,7.16
2023-02-07T09:55:49.839Z,6.95
2023-02-07T10:01:05.396Z,6.98
2023-02-07T10:06:19.959Z,7.31
2023-02-07T10:11:53.620Z,7.34
2023-02-07T10:17:09.307Z,7.48
2023-02-07T10:22:32.903Z,7.34
2023-02-07T10:27:51.110Z,7.05
2023-02-07T10:32:55.113Z,7.19
2023-02-07T10:38:00.942Z,7.45
2023-02-07T10:43:11.881Z,7.84
2023-02-07T10:48:16.737Z,8.08
2023-02-07T10:54:10.949Z,8.59
2023-02-07T10:59:46.063Z,8.81
2023-02-07T11:04:48.558Z,9.02
2023-02-07T11:09:50.928Z,8.52
2023-02-07T11:15:08.404Z,8.49
2023-02-07T11:20:25.246Z,7.96
2023-02-07T11:25:36.581Z,8.81
2023-02-07T11:30:39.160Z,8.63
2023-02-07T11:36:02.337Z,9.05
2023-02-07T11:41:07.167Z,9.24
2023-02-07T11:46:10.972Z,9.00
2023-02-07T11:51:17.961Z,8.73
2023-02-07T11:56:34.614Z,8.76
2023-02-07T12:01:38.100Z,9.00
2023-02-07T12:06:48.474Z,9.35
2023-02-07T12:11:54.150Z,9.45
2023-02-07T12:17:00.151Z,9.47
2023-02-07T12:22:19.012Z,9.16
2023-02-07T12:27:26.774Z,9.01
2023-02-07T12:32:38.756Z,9.19
2023-02-07T12:37:50.007Z,9.76
2023-02-07T12:43:02.870Z,9.90
2023-02-07T12:48:08.383Z,9.92
2023-02-07T12:53:22.561Z,9.93
2023-02-07T12:58:34.553Z,10.36
2023-02-07T13:04:12.125Z,10.18
2023-02-07T13:09:41.180Z,10.14
2023-02-07T13:15:10.392Z,10.06
2023-02-07T13:20:47.526Z,9.57
2023-02-07T13:25:55.113Z,9.64
2023-02-07T13:31:00.563Z,9.79
2023-02-07T13:36:12.354Z,9.53
2023-02-07T13:41:20.427Z,9.79
2023-02-07T13:46:56.193Z,9.43
2023-02-07T13:52:24.421Z,9.18
2023-02-07T13:57:53.691Z,8.88
2023-02-07T14:02:58.489Z,8.37
2023-02-07T14:08:03.702Z,8.61
2023-02-07T14:13:06.290Z,8.29
2023-02-07T14:18:33.432Z,7.66
2023-02-07T14:24:09.721Z,7.92
2023-02-07T14:29:20.861Z,7.77
2023-02-07T14:34:25.302Z,7.53
2023-02-07T14:39:34.162Z,8.11
2023-02-07T14:44:40.205Z,8.29
2023-02-07T14:49:47.711Z,8.55
2023-02-07T14:55:17.915Z,8.43
2023-02-07T15:00:33.922Z,8.45
2023-02-07T15:05:38.825Z,8.65
2023-02-07T15:10:53.514Z,8.40
2023-02-07T15:16:00.066Z,8.62
2023-02-07T15:21:03.351Z,8.21
2023-02-07T15:26:09.070Z,7.66
2023-02-07T15:31:17.706Z,7.28
2023-02-07T15:36:42.193Z,7.13
2023-02-07T15:41:49.804Z,7.16
2023-02-07T15:46:57.942Z,7.27
2023-02-07T15:52:28.198Z,7.16
2023-02-07T15:57:42.044Z,6.95
2023-02-07T16:02:50.117Z,6.40
2023-02-07T16:07:54.487Z,6.59
2023-02-07T16:13:19.489Z,6.79
2023-02-07T16:18:40.387Z,6.67
2023-02-07T16:23:42.844Z,6.67
2023-02-07T16:28:46.936Z,6.82
2023-02-07T16:33:49.146Z,6.62
2023-02-07T16:38:52.906Z,6.70
2023-02-07T16:43:55.419Z,6.50
2023-02-07T16:48:57.971Z,6.96
2023-02-07T16:54:00.069Z,6.86
2023-02-07T16:59:02.370Z,6.81
2023-02-07T17:04:04.806Z,6.73
2023-02-07T17:09:18.476Z,6.83
2023-02-07T17:14:21.425Z,6.99
2023-02-07T17:19:24.225Z,6.93
2023-02-07T17:24:26.582Z,6.49
2023-02-07T17:29:30.324Z,6.66
2023-02-07T17:34:32.435Z,6.46
2023-02-07T17:39:34.539Z,6.65
2023-02-07T17:44:36.711Z,6.71
2023-02-07T17:49:38.906Z,6.77
2023-02-07T17:54:45.598Z,6.60
2023-02-07T17:59:47.842Z,6.64
2023-02-07T18:04:51.959Z,6.47
2023-02-07T18:09:54.364Z,6.55
2023-02-07T18:14:57.298Z,6.51
2023-02-07T18:19:59.403Z,6.48
2023-02-07T18:25:01.956Z,6.50
2023-02-07T18:30:08.734Z,6.36
2023-02-07T18:35:11.117Z,5.97
2023-02-07T18:40:16.164Z,5.71
2023-02-07T18:45:18.568Z,5.79
2023-02-07T18:50:20.868Z,5.99
2023-02-07T18:55:23.007Z,5.94
2023-02-07T19:00:25.121Z,5.79
2023-02-07T19:05:27.535Z,5.98
2023-02-07T19:10:29.888Z,5.93
2023-02-07T19:15:32.002Z,5.81
2023-02-07T19:20:34.242Z,5.84
2023-02-07T19:25:36.465Z,5.94
2023-02-07T19:30:42.966Z,5.81
2023-02-07T19:35:45.234Z,5.50
2023-02-07T19:40:56.252Z,5.41
2023-02-07T19:45:58.601Z,5.28
2023-02-07T19:51:03.996Z,5.62
2023-02-07T19:56:11.712Z,5.69
2023-02-07T20:01:14.669Z,5.70
2023-02-07T20:06:21.278Z,5.56
2023-02-07T20:11:23.556Z,5.52
2023-02-07T20:16:26.737Z,5.58
2023-02-07T20:21:33.430Z,5.64
2023-02-07T20:26:42.986Z,5.79
2023-02-07T20:31:47.551Z,5.81
2023-02-07T20:36:49.674Z,5.59
2023-02-07T20:41:51.880Z,5.10
2023-02-07T20:46:55.947Z,5.15
2023-02-07T20:51:59.786Z,4.89
2023-02-07T20:57:02.006Z,5.00
2023-02-07T21:02:04.424Z,5.12
2023-02-07T21:07:06.570Z,4.83
2023-02-07T21:12:09.158Z,4.97
2023-02-07T21:17:12.586Z,4.76
2023-02-07T21:22:14.794Z,4.67
2023-02-07T21:27:16.933Z,4.62
2023-02-07T21:32:19.255Z,4.76
2023-02-07T21:37:21.434Z,4.36
2023-02-07T21:42:23.609Z,3.99
2023-02-07T21:47:28.089Z,4.36
2023-02-07T21:52:30.294Z,4.37
2023-02-07T21:57:32.398Z,4.28
2023-02-07T22:02:35.238Z,4.59
2023-02-07T22:07:37.503Z,4.12
2023-02-07T22:12:39.698Z,4.37
2023-02-07T22:17:41.855Z,4.31
2023-02-07T22:22:43.964Z,4.17
2023-02-07T22:27:46.128Z,4.47
2023-02-07T22:32:48.319Z,4.32
2023-02-07T22:37:50.437Z,4.06
2023-02-07T22:42:52.711Z,3.88
2023-02-07T22:47:54.917Z,3.98
2023-02-07T22:52:59.026Z,3.98
2023-02-07T22:58:01.227Z,4.14
2023-02-07T23:03:03.447Z,4.12
2023-02-07T23:08:05.882Z,3.60
2023-02-07T23:13:08.455Z,3.74
2023-02-07T23:18:10.765Z,3.61
2023-02-07T23:23:13.840Z,3.61
2023-02-07T23:28:16.360Z,3.18
2023-02-07T23:33:18.575Z,3.07
2023-02-07T23:38:20.739Z,2.75
2023-02-07T23:43:23.364Z,3.30
2023-02-07T23:48:25.726Z,3.54
2023-02-07T23:53:28.266Z,3.63
2023-02-07T23:58:30.473Z,3.49
